createdAt,value
2023-03-04T00:01:20.791Z,36.72
2023-03-04T00:03:47.422Z,39.30
2023-03-04T00:06:14.152Z,35.28
2023-03-04T00:08:40.741Z,36.97
2023-03-04T00:11:07.447Z,35.33
2023-03-04T00:13:34.033Z,37.30
2023-03-04T00:16:00.763Z,43.38
2023-03-04T00:18:27.390Z,44.80
2023-03-04T00:20:54.019Z,39.50
2023-03-04T00:23:20.631Z,37.13
2023-03-04T00:25:47.262Z,35.03
2023-03-04T00:28:13.888Z,35.03
2023-03-04T00:30:40.554Z,36.35
2023-03-04T00:33:07.178Z,35.08
2023-03-04T00:35:33.790Z,34.45
2023-03-04T00:38:00.382Z,35.17
2023-03-04T00:40:27.151Z,34.58
2023-03-04T00:42:53.786Z,38.10
2023-03-04T00:45:20.405Z,39.00
2023-03-04T00:47:47.001Z,39.40
2023-03-04T00:50:13.591Z,39.08
2023-03-04T00:52:40.208Z,41.03
2023-03-04T00:55:07.749Z,40.70
2023-03-04T00:57:34.644Z,41.17
2023-03-04T01:00:01.345Z,39.50
2023-03-04T01:02:27.989Z,39.00
2023-03-04T01:04:54.668Z,37.38
2023-03-04T01:07:21.313Z,37.17
2023-03-04T01:09:47.996Z,35.10
2023-03-04T01:12:14.652Z,34.47
2023-03-04T01:14:41.279Z,36.78
2023-03-04T01:17:07.897Z,33.75
2023-03-04T01:19:34.552Z,34.25
2023-03-04T01:22:01.139Z,35.75
2023-03-04T01:24:29.860Z,35.85
2023-03-04T01:26:56.595Z,32.17
2023-03-04T01:29:23.216Z,33.63
2023-03-04T01:31:49.909Z,35.47
2023-03-04T01:34:17.974Z,35.85
2023-03-04T01:36:44.572Z,33.47
2023-03-04T01:39:11.216Z,32.63
2023-03-04T01:41:37.924Z,33.95
2023-03-04T01:44:04.722Z,33.38
2023-03-04T01:46:31.384Z,35.20
2023-03-04T01:48:58.128Z,32.97
2023-03-04T01:51:24.742Z,34.40
2023-03-04T01:53:53.339Z,35.88
2023-03-04T01:56:25.883Z,34.08
2023-03-04T02:01:39.499Z,32.15
2023-03-04T02:04:06.311Z,32.42
2023-03-04T02:06:32.949Z,35.50
2023-03-04T02:08:59.546Z,33.15
2023-03-04T02:11:26.128Z,34.10
2023-03-04T02:13:52.940Z,31.92
2023-03-04T02:16:19.775Z,31.58
2023-03-04T02:18:46.436Z,33.95
2023-03-04T02:21:19.093Z,35.20
2023-03-04T02:26:27.551Z,34.72
2023-03-04T02:28:55.106Z,32.67
2023-03-04T02:31:39.845Z,33.22
2023-03-04T02:34:11.025Z,33.97
2023-03-04T02:36:37.797Z,34.72
2023-03-04T02:39:07.336Z,33.85
2023-03-04T02:41:34.221Z,34.22
2023-03-04T02:44:00.862Z,33.60
2023-03-04T02:46:27.554Z,35.50
2023-03-04T02:48:54.258Z,32.85
2023-03-04T02:51:20.945Z,33.40
2023-03-04T02:53:47.541Z,32.85
2023-03-04T02:56:14.228Z,35.38
2023-03-04T02:58:41.211Z,33.95
2023-03-04T03:01:08.046Z,33.47
2023-03-04T03:03:34.642Z,32.85
2023-03-04T03:06:01.319Z,32.40
2023-03-04T03:08:27.886Z,34.08
2023-03-04T03:10:54.562Z,35.90
2023-03-04T03:13:21.216Z,35.42
2023-03-04T03:15:49.988Z,37.90
2023-03-04T03:18:16.787Z,35.88
2023-03-04T03:20:43.386Z,39.30
2023-03-04T03:23:10.024Z,41.83
2023-03-04T03:25:36.684Z,39.60
2023-03-04T03:28:03.438Z,43.05
2023-03-04T03:30:30.081Z,35.45
2023-03-04T03:32:56.752Z,37.42
2023-03-04T03:35:23.437Z,34.28
2023-03-04T03:37:50.083Z,34.97
2023-03-04T03:40:16.771Z,34.95
2023-03-04T03:42:43.377Z,33.13
2023-03-04T03:45:10.479Z,34.83
2023-03-04T03:47:37.111Z,31.30
2023-03-04T03:50:04.530Z,34.75
2023-03-04T03:52:31.206Z,33.33
2023-03-04T03:54:58.672Z,34.30
2023-03-04T03:57:26.616Z,34.67
2023-03-04T03:59:53.234Z,34.08
2023-03-04T04:02:19.881Z,32.83
2023-03-04T04:04:46.914Z,34.45
2023-03-04T04:07:13.510Z,33.28
2023-03-04T04:09:40.101Z,34.63
2023-03-04T04:12:07.143Z,32.78
2023-03-04T04:14:33.843Z,32.67
2023-03-04T04:17:00.655Z,32.65
2023-03-04T04:19:27.329Z,33.75
2023-03-04T04:21:53.932Z,33.47
2023-03-04T04:24:20.562Z,34.80
2023-03-04T04:26:47.169Z,31.35
2023-03-04T04:29:14.613Z,31.98
2023-03-04T04:31:41.256Z,31.92
2023-03-04T04:34:08.007Z,34.20
2023-03-04T04:36:34.683Z,34.85
2023-03-04T04:39:01.308Z,32.60
2023-03-04T04:41:30.186Z,32.60
2023-03-04T04:43:56.835Z,33.55
2023-03-04T04:46:23.599Z,33.38
2023-03-04T04:48:50.342Z,32.10
2023-03-04T04:51:17.046Z,30.05
2023-03-04T04:53:44.691Z,31.92
2023-03-04T04:56:13.069Z,34.53
2023-03-04T04:58:39.708Z,35.05
2023-03-04T05:01:06.464Z,32.70
2023-03-04T05:03:34.366Z,36.85
2023-03-04T05:06:01.026Z,34.35
2023-03-04T05:08:27.696Z,34.83
2023-03-04T05:10:54.405Z,34.42
2023-03-04T05:13:21.257Z,35.33
2023-03-04T05:15:47.952Z,33.38
2023-03-04T05:18:14.578Z,31.52
2023-03-04T05:20:41.215Z,31.30
2023-03-04T05:23:07.862Z,28.85
2023-03-04T05:25:34.453Z,37.92
2023-03-04T05:28:02.076Z,38.75
2023-03-04T05:30:28.746Z,35.65
2023-03-04T05:32:55.420Z,38.38
2023-03-04T05:35:22.140Z,32.08
2023-03-04T05:37:48.759Z,32.22
2023-03-04T05:40:15.493Z,37.28
2023-03-04T05:42:42.126Z,30.40
2023-03-04T05:45:08.989Z,30.92
2023-03-04T05:47:35.693Z,37.83
2023-03-04T05:50:02.333Z,39.30
2023-03-04T05:52:28.943Z,37.65
2023-03-04T05:54:55.551Z,35.28
2023-03-04T05:57:22.268Z,41.72
2023-03-04T05:59:48.874Z,42.42
2023-03-04T06:02:15.530Z,40.70
2023-03-04T06:04:42.100Z,31.85
2023-03-04T06:07:08.725Z,32.10
2023-03-04T06:09:35.374Z,33.15
2023-03-04T06:12:01.992Z,30.67
2023-03-04T06:14:28.640Z,31.65
2023-03-04T06:16:55.306Z,30.98
2023-03-04T06:19:21.910Z,32.20
2023-03-04T06:21:48.546Z,31.45
2023-03-04T06:24:15.208Z,29.77
2023-03-04T06:26:41.856Z,29.50
2023-03-04T06:29:08.492Z,30.98
2023-03-04T06:31:35.178Z,31.25
2023-03-04T06:34:01.855Z,30.95
2023-03-04T06:36:28.548Z,29.60
2023-03-04T06:38:55.215Z,29.75
2023-03-04T06:41:21.927Z,29.33
2023-03-04T06:43:48.599Z,31.27
2023-03-04T06:46:15.268Z,31.92
2023-03-04T06:48:41.950Z,30.08
2023-03-04T06:51:09.293Z,30.05
2023-03-04T06:53:36.236Z,26.27
2023-03-04T06:56:02.943Z,31.33
2023-03-04T06:58:29.562Z,29.52
2023-03-04T07:00:56.195Z,29.63
2023-03-04T07:03:23.453Z,31.42
2023-03-04T07:05:50.056Z,28.50
2023-03-04T07:08:16.669Z,31.13
2023-03-04T07:10:43.304Z,32.83
2023-03-04T07:13:09.940Z,30.80
2023-03-04T07:15:37.564Z,28.45
2023-03-04T07:18:04.254Z,29.80
2023-03-04T07:20:31.855Z,31.15
2023-03-04T07:22:58.542Z,31.10
2023-03-04T07:25:25.434Z,28.38
2023-03-04T07:27:52.042Z,28.40
2023-03-04T07:30:18.828Z,28.95
2023-03-04T07:32:45.462Z,26.90
2023-03-04T07:35:12.113Z,28.05
2023-03-04T07:37:40.466Z,29.65
2023-03-04T07:40:09.140Z,30.02
2023-03-04T07:42:35.806Z,29.27
2023-03-04T07:45:02.864Z,30.85
2023-03-04T07:47:29.525Z,31.65
2023-03-04T07:49:56.202Z,33.45
2023-03-04T07:52:22.877Z,31.25
2023-03-04T07:54:49.481Z,31.33
2023-03-04T07:57:16.128Z,49.90
2023-03-04T07:59:42.764Z,47.13
2023-03-04T08:02:10.647Z,46.80
2023-03-04T08:04:37.582Z,48.03
2023-03-04T08:07:04.187Z,41.53
2023-03-04T08:09:31.327Z,42.05
2023-03-04T08:11:57.939Z,39.35
2023-03-04T08:14:24.569Z,38.33
2023-03-04T08:16:51.263Z,34.95
2023-03-04T08:19:17.877Z,35.13
2023-03-04T08:21:44.514Z,34.97
2023-03-04T08:24:11.558Z,38.50
2023-03-04T08:26:41.895Z,35.88
2023-03-04T08:29:09.572Z,34.45
2023-03-04T08:31:36.682Z,35.78
2023-03-04T08:34:04.135Z,36.45
2023-03-04T08:36:30.803Z,33.45
2023-03-04T08:38:57.461Z,35.05
2023-03-04T08:41:26.153Z,32.97
2023-03-04T08:43:52.887Z,30.60
2023-03-04T08:46:19.517Z,31.13
2023-03-04T08:48:46.320Z,30.50
2023-03-04T08:51:14.049Z,30.00
2023-03-04T08:53:41.011Z,29.70
2023-03-04T08:56:07.956Z,29.75
2023-03-04T08:58:34.801Z,31.77
2023-03-04T09:01:01.797Z,30.45
2023-03-04T09:03:28.524Z,29.33
2023-03-04T09:05:55.216Z,28.50
2023-03-04T09:08:21.839Z,28.92
2023-03-04T09:10:52.486Z,29.35
2023-03-04T09:13:19.030Z,29.48
2023-03-04T09:15:46.721Z,27.52
2023-03-04T09:18:14.059Z,27.35
2023-03-04T09:20:40.819Z,24.35
2023-03-04T09:23:09.398Z,24.58
2023-03-04T09:25:37.284Z,23.83
2023-03-04T09:28:04.205Z,25.25
2023-03-04T09:30:30.907Z,25.30
2023-03-04T09:32:57.521Z,25.63
2023-03-04T09:35:24.192Z,26.13
2023-03-04T09:37:50.941Z,24.33
2023-03-04T09:40:20.585Z,23.98
2023-03-04T09:42:49.731Z,23.67
2023-03-04T09:45:19.174Z,23.55
2023-03-04T09:47:45.843Z,23.63
2023-03-04T09:50:12.673Z,25.80
2023-03-04T09:52:56.577Z,26.20
2023-03-04T09:55:25.643Z,25.92
2023-03-04T09:58:00.485Z,24.65
2023-03-04T10:00:51.889Z,25.95
2023-03-04T10:03:19.622Z,26.48
2023-03-04T10:06:08.920Z,26.25
2023-03-04T10:17:09.275Z,26.05
2023-03-04T10:22:23.873Z,26.45
2023-03-04T10:24:50.563Z,27.58
2023-03-04T10:27:18.891Z,26.65
2023-03-04T10:29:47.999Z,28.17
2023-03-04T10:32:18.121Z,25.75
2023-03-04T10:34:44.922Z,26.73
2023-03-04T10:37:11.823Z,24.65
2023-03-04T10:39:41.229Z,26.95
2023-03-04T10:42:24.293Z,24.40
2023-03-04T10:44:55.194Z,25.55
2023-03-04T10:47:24.246Z,21.90
2023-03-04T10:49:54.195Z,21.75
2023-03-04T10:52:28.617Z,21.45
2023-03-04T10:54:58.810Z,24.73
2023-03-04T10:57:37.783Z,22.65
2023-03-04T11:02:42.350Z,23.10
2023-03-04T11:07:57.671Z,22.15
2023-03-04T11:10:41.635Z,23.15
2023-03-04T11:13:16.419Z,24.85
2023-03-04T11:16:01.702Z,23.33
2023-03-04T11:18:47.362Z,22.67
2023-03-04T11:21:23.490Z,22.10
2023-03-04T11:23:59.331Z,23.13
2023-03-04T11:26:30.681Z,26.35
2023-03-04T11:29:08.544Z,22.80
2023-03-04T11:31:54.663Z,21.02
2023-03-04T11:34:51.548Z,22.50
2023-03-04T11:37:40.103Z,24.15
2023-03-04T11:40:25.768Z,21.00
2023-03-04T11:42:57.453Z,19.95
2023-03-04T11:45:30.957Z,25.63
2023-03-04T11:48:13.313Z,23.38
2023-03-04T11:50:58.038Z,21.95
2023-03-04T11:53:47.680Z,24.80
2023-03-04T11:56:35.142Z,24.80
2023-03-04T11:59:25.182Z,27.42
2023-03-04T12:02:13.157Z,24.92
2023-03-04T12:05:17.435Z,24.15
2023-03-04T12:08:08.408Z,23.73
2023-03-04T12:11:01.642Z,24.70
2023-03-04T12:13:51.022Z,24.65
2023-03-04T12:19:45.521Z,26.58
2023-03-04T12:22:37.107Z,21.30
2023-03-04T12:28:41.787Z,22.45
2023-03-04T12:31:46.902Z,22.50
2023-03-04T12:34:35.996Z,24.50
2023-03-04T12:37:42.429Z,25.67
2023-03-04T12:40:27.664Z,22.67
2023-03-04T12:46:17.941Z,21.92
2023-03-04T12:49:07.706Z,26.25
2023-03-04T12:51:41.393Z,23.00
2023-03-04T12:54:25.967Z,22.73
2023-03-04T12:57:02.629Z,21.08
2023-03-04T12:59:31.862Z,21.33
2023-03-04T13:02:25.076Z,19.00
2023-03-04T13:07:52.444Z,18.10
2023-03-04T13:10:20.042Z,17.38
2023-03-04T13:13:03.657Z,17.83
2023-03-04T13:15:35.463Z,17.25
2023-03-04T13:18:25.659Z,18.07
2023-03-04T13:21:14.739Z,17.38
2023-03-04T13:23:41.376Z,18.35
2023-03-04T13:26:18.065Z,17.55
2023-03-04T13:28:44.797Z,19.55
2023-03-04T13:31:14.190Z,17.77
2023-03-04T13:33:46.366Z,20.20
2023-03-04T13:36:33.977Z,21.33
2023-03-04T13:41:55.281Z,17.95
2023-03-04T13:44:45.430Z,18.00
2023-03-04T13:47:21.553Z,19.17
2023-03-04T13:49:48.179Z,19.08
2023-03-04T13:52:39.052Z,17.25
2023-03-04T13:55:34.465Z,17.17
2023-03-04T13:58:02.244Z,18.15
2023-03-04T14:00:29.171Z,20.30
2023-03-04T14:02:56.103Z,18.75
2023-03-04T14:05:22.743Z,19.98
2023-03-04T14:07:49.402Z,18.88
2023-03-04T14:12:56.576Z,21.17
2023-03-04T14:15:26.037Z,18.35
2023-03-04T14:17:53.895Z,18.52
2023-03-04T14:23:22.544Z,17.67
2023-03-04T14:25:49.249Z,17.40
2023-03-04T14:28:17.536Z,17.13
2023-03-04T14:30:52.846Z,18.17
2023-03-04T14:33:22.230Z,18.42
2023-03-04T14:35:50.119Z,15.30
2023-03-04T14:38:26.185Z,16.38
2023-03-04T14:40:56.492Z,17.42
2023-03-04T14:43:23.301Z,15.35
2023-03-04T14:45:51.739Z,15.25
2023-03-04T14:48:35.027Z,19.10
2023-03-04T14:51:02.102Z,16.40
2023-03-04T14:53:32.461Z,17.25
2023-03-04T14:56:05.610Z,16.48
2023-03-04T14:58:33.487Z,16.70
2023-03-04T15:01:05.499Z,17.75
2023-03-04T15:03:32.324Z,13.80
2023-03-04T15:06:16.270Z,16.88
2023-03-04T15:08:42.950Z,16.50
2023-03-04T15:11:20.319Z,15.38
2023-03-04T15:13:49.866Z,15.52
2023-03-04T15:16:18.218Z,14.55
2023-03-04T15:19:05.693Z,16.42
2023-03-04T15:21:34.811Z,14.15
2023-03-04T15:24:03.560Z,14.38
2023-03-04T15:26:32.562Z,14.98
2023-03-04T15:28:59.333Z,14.43
2023-03-04T15:31:26.053Z,13.70
2023-03-04T15:33:52.817Z,13.48
2023-03-04T15:36:20.961Z,15.60
2023-03-04T15:38:49.189Z,15.90
2023-03-04T15:41:21.567Z,16.02
2023-03-04T15:43:48.234Z,16.17
2023-03-04T15:46:16.952Z,15.55
2023-03-04T15:48:45.534Z,13.32
2023-03-04T15:51:15.849Z,13.63
2023-03-04T15:53:48.411Z,14.57
2023-03-04T15:58:43.732Z,15.98
2023-03-04T16:01:14.869Z,15.32
2023-03-04T16:03:41.525Z,15.30
2023-03-04T16:06:10.900Z,14.48
2023-03-04T16:08:37.644Z,15.38
2023-03-04T16:11:04.554Z,14.55
2023-03-04T16:13:31.198Z,15.93
2023-03-04T16:15:58.055Z,18.85
2023-03-04T16:18:24.943Z,18.88
2023-03-04T16:20:51.548Z,18.10
2023-03-04T16:23:21.687Z,17.63
2023-03-04T16:25:49.486Z,20.23
2023-03-04T16:28:16.120Z,17.92
2023-03-04T16:30:42.991Z,19.05
2023-03-04T16:33:11.321Z,19.15
2023-03-04T16:35:38.705Z,14.27
2023-03-04T16:38:07.295Z,14.88
2023-03-04T16:40:34.049Z,17.42
2023-03-04T16:43:00.692Z,18.52
2023-03-04T16:45:30.180Z,14.88
2023-03-04T16:47:56.856Z,18.08
2023-03-04T16:50:27.374Z,14.68
2023-03-04T16:52:55.036Z,13.90
2023-03-04T16:55:24.929Z,14.68
2023-03-04T16:57:52.298Z,16.58
2023-03-04T17:00:20.171Z,15.63
2023-03-04T17:02:51.440Z,15.50
2023-03-04T17:05:19.295Z,14.95
2023-03-04T17:07:46.366Z,16.25
2023-03-04T17:10:13.743Z,16.20
2023-03-04T17:12:40.793Z,15.60
2023-03-04T17:15:09.688Z,14.13
2023-03-04T17:17:36.326Z,14.88
2023-03-04T17:20:05.913Z,14.10
2023-03-04T17:22:33.728Z,15.85
2023-03-04T17:25:00.505Z,14.65
2023-03-04T17:27:27.106Z,15.32
2023-03-04T17:29:54.927Z,15.32
2023-03-04T17:32:21.907Z,15.05
2023-03-04T17:34:48.694Z,18.42
2023-03-04T17:37:15.468Z,15.77
2023-03-04T17:39:42.300Z,21.55
2023-03-04T17:42:08.911Z,18.75
2023-03-04T17:44:35.584Z,19.88
2023-03-04T17:47:02.426Z,22.15
2023-03-04T17:49:29.047Z,19.48
2023-03-04T17:51:55.770Z,22.70
2023-03-04T17:54:22.410Z,20.00
2023-03-04T17:56:49.235Z,17.17
2023-03-04T17:59:16.142Z,15.63
2023-03-04T18:01:45.175Z,17.10
2023-03-04T18:04:12.390Z,17.60
2023-03-04T18:06:39.041Z,17.20
2023-03-04T18:09:06.174Z,15.80
2023-03-04T18:11:34.748Z,16.92
2023-03-04T18:14:01.444Z,18.40
2023-03-04T18:16:28.903Z,17.90
2023-03-04T18:18:58.303Z,16.77
2023-03-04T18:21:25.533Z,17.27
2023-03-04T18:23:52.394Z,18.70
2023-03-04T18:26:21.143Z,16.08
2023-03-04T18:28:47.951Z,17.88
2023-03-04T18:31:17.140Z,16.88
2023-03-04T18:33:43.776Z,17.20
2023-03-04T18:36:11.585Z,15.63
2023-03-04T18:38:38.209Z,23.25
2023-03-04T18:41:06.962Z,22.13
2023-03-04T18:43:34.032Z,22.95
2023-03-04T18:46:21.481Z,24.73
2023-03-04T18:48:50.611Z,17.15
2023-03-04T18:51:17.220Z,15.23
2023-03-04T18:53:43.862Z,16.45
2023-03-04T18:56:12.531Z,16.88
2023-03-04T18:58:39.567Z,16.45
2023-03-04T19:01:07.470Z,18.15
2023-03-04T19:03:34.417Z,16.75
2023-03-04T19:06:01.211Z,17.75
2023-03-04T19:08:27.999Z,20.48
2023-03-04T19:10:55.673Z,17.42
2023-03-04T19:13:22.714Z,19.23
2023-03-04T19:15:50.647Z,20.73
2023-03-04T19:18:17.282Z,17.80
2023-03-04T19:20:43.988Z,19.30
2023-03-04T19:23:10.720Z,19.95
2023-03-04T19:25:38.151Z,18.60
2023-03-04T19:28:04.967Z,19.27
2023-03-04T19:30:31.778Z,19.63
2023-03-04T19:32:59.202Z,23.45
2023-03-04T19:35:25.880Z,19.23
2023-03-04T19:37:52.539Z,17.02
2023-03-04T19:40:20.919Z,16.23
2023-03-04T19:42:47.699Z,18.67
2023-03-04T19:45:14.347Z,18.67
2023-03-04T19:47:41.031Z,18.95
2023-03-04T19:50:09.227Z,16.80
2023-03-04T19:52:35.908Z,15.98
2023-03-04T19:55:03.623Z,15.70
2023-03-04T19:57:30.457Z,16.15
2023-03-04T19:59:57.050Z,16.90
2023-03-04T20:02:23.738Z,17.23
2023-03-04T20:04:50.467Z,19.35
2023-03-04T20:07:17.160Z,18.13
2023-03-04T20:09:46.985Z,17.90
2023-03-04T20:12:13.627Z,18.85
2023-03-04T20:14:40.301Z,21.08
2023-03-04T20:17:07.018Z,16.88
2023-03-04T20:19:34.076Z,17.85
2023-03-04T20:22:00.842Z,19.23
2023-03-04T20:24:27.695Z,18.95
2023-03-04T20:26:55.444Z,18.40
2023-03-04T20:29:22.100Z,17.95
2023-03-04T20:31:49.086Z,19.08
2023-03-04T20:34:15.780Z,17.63
2023-03-04T20:36:42.478Z,18.23
2023-03-04T20:39:25.766Z,19.63
2023-03-04T20:41:54.063Z,18.67
2023-03-04T20:44:20.703Z,21.05
2023-03-04T20:46:47.335Z,18.85
2023-03-04T20:49:18.677Z,19.67
2023-03-04T20:51:45.422Z,17.95
2023-03-04T20:54:12.066Z,18.73
2023-03-04T20:56:38.819Z,19.15
2023-03-04T20:59:08.063Z,18.15
2023-03-04T21:01:35.629Z,17.08
2023-03-04T21:04:02.471Z,14.77
2023-03-04T21:06:29.243Z,18.65
2023-03-04T21:08:56.714Z,18.30
2023-03-04T21:11:23.700Z,18.70
2023-03-04T21:13:56.282Z,18.75
2023-03-04T21:16:25.846Z,20.92
2023-03-04T21:18:53.214Z,18.15
2023-03-04T21:21:23.112Z,19.25
2023-03-04T21:23:50.788Z,17.27
2023-03-04T21:26:18.005Z,17.25
2023-03-04T21:28:44.746Z,17.75
2023-03-04T21:31:15.671Z,17.23
2023-03-04T21:33:42.381Z,18.65
2023-03-04T21:36:10.235Z,18.88
2023-03-04T21:38:38.643Z,17.58
2023-03-04T21:41:06.209Z,19.27
2023-03-04T21:43:32.960Z,18.05
2023-03-04T21:45:59.671Z,18.05
2023-03-04T21:48:26.353Z,18.05
2023-03-04T21:50:54.275Z,16.27
2023-03-04T21:53:23.472Z,17.08
2023-03-04T21:55:50.855Z,18.33
2023-03-04T21:58:17.523Z,16.98
2023-03-04T22:00:44.313Z,17.90
2023-03-04T22:03:11.039Z,20.02
2023-03-04T22:05:40.834Z,18.95
2023-03-04T22:08:07.457Z,19.58
2023-03-04T22:10:37.896Z,17.88
2023-03-04T22:13:08.923Z,18.85
2023-03-04T22:15:37.562Z,19.27
2023-03-04T22:18:05.205Z,20.00
2023-03-04T22:20:34.348Z,18.52
2023-03-04T22:23:01.123Z,17.63
2023-03-04T22:25:27.864Z,19.45
2023-03-04T22:27:54.535Z,18.88
2023-03-04T22:30:21.290Z,18.67
2023-03-04T22:32:48.445Z,18.48
2023-03-04T22:35:15.706Z,20.35
2023-03-04T22:37:43.068Z,20.50
2023-03-04T22:40:11.489Z,18.85
2023-03-04T22:42:38.148Z,20.55
2023-03-04T22:45:05.139Z,19.75
2023-03-04T22:47:31.791Z,19.08
2023-03-04T22:49:58.579Z,20.25
2023-03-04T22:52:25.243Z,19.65
2023-03-04T22:54:52.009Z,18.77
2023-03-04T22:57:18.633Z,19.73
2023-03-04T22:59:45.437Z,21.13
2023-03-04T23:02:12.131Z,19.27
2023-03-04T23:04:38.872Z,19.08
2023-03-04T23:07:05.755Z,19.63
2023-03-04T23:09:32.338Z,17.48
2023-03-04T23:11:58.934Z,20.85
2023-03-04T23:14:25.597Z,18.55
2023-03-04T23:16:52.296Z,17.58
2023-03-04T23:19:19.262Z,22.77
2023-03-04T23:21:46.104Z,19.70
2023-03-04T23:24:12.895Z,20.17
2023-03-04T23:26:40.610Z,21.55
2023-03-04T23:29:08.724Z,20.30
2023-03-04T23:31:35.807Z,19.30
2023-03-04T23:34:02.897Z,21.10
2023-03-04T23:36:31.195Z,19.50
2023-03-04T23:38:57.848Z,19.48
2023-03-04T23:41:26.497Z,19.38
2023-03-04T23:43:57.146Z,18.60
2023-03-04T23:46:24.107Z,18.85
2023-03-04T23:48:51.037Z,18.30
2023-03-04T23:51:19.132Z,20.67
2023-03-04T23:53:45.869Z,19.63
2023-03-04T23:56:14.739Z,18.30
2023-03-04T23:58:42.603Z,20.58
